Kings Canyon National Pk, California
Current Conditions -  °F | °C
As of 3:56 PM on Tuesday 25 Nov 2014 (Local Time) from KBIH Reporting Station
Clear Clear  
Wind Chill: 18°   Ceiling: Unl
Heat Index: 18°   Visibility: 10mi
Dew Point: -12°   Wind: 8mph
Humidity: 12%   Direction: 170°S
Pressure: 30.37"   Gusts: NA
Location:  36.7872°N, 118.66°W
Report Text: KBIH 252356Z AUTO 17007KT 10SM CLR 18/M12 A3037 RMK AO2 SLP276 T01781122 10200 20111 56010
Loading
Personal Weather Stations






























Interactive Weather Map New forecast layout! Learn more

10-Day Weather Forecast

Advertisements
Track Severe Weather on mobile